Time;durP1;ratioP1;P1;durP2;ratioP2;P2;SDS_P1;SDS_P2;PMS_P1;PMS_P2;Temp;Humidity;BMP_temperature;BMP_pressure;BME280_temperature;BME280_humidity;BME280_pressure;Samples;Min_cycle;Max_cycle;Signal;HPM_P1;HPM_P2
2022/10/14 00:01:58;;;;;;;52.28;31.27;;;;;;;11.43;100.00;155395.69;4980649;28;20068;-76
2022/10/14 00:04:23;;;;;;;51.88;32.63;;;;;;;11.47;100.00;155405.94;5009421;28;20042;-77
2022/10/14 00:06:49;;;;;;;57.55;34.63;;;;;;;11.47;100.00;155407.25;4993760;28;20730;-77
2022/10/14 00:09:15;;;;;;;57.13;31.80;;;;;;;11.48;100.00;155408.53;5009352;28;20052;-75
2022/10/14 00:11:41;;;;;;;54.75;32.53;;;;;;;11.49;100.00;155411.13;4977983;28;20042;-75
2022/10/14 00:14:11;;;;;;;57.47;34.03;;;;;;;11.49;100.00;155411.13;5008573;28;20092;-76
2022/10/14 00:16:39;;;;;;;53.85;32.65;;;;;;;11.46;100.00;155403.41;5002868;28;20112;-77
2022/10/14 00:19:05;;;;;;;54.22;32.00;;;;;;;11.47;100.00;155407.25;5009309;28;20037;-75
2022/10/14 00:21:32;;;;;;;48.47;31.25;;;;;;;11.50;100.00;155413.66;4978587;28;20117;-77
2022/10/14 00:23:58;;;;;;;49.55;29.45;;;;;;;11.52;100.00;155418.78;4991006;28;20084;-77
2022/10/14 00:26:27;;;;;;;48.03;30.02;;;;;;;11.54;100.00;155423.91;5008422;28;20387;-76
2022/10/14 00:28:54;;;;;;;47.83;29.80;;;;;;;11.53;100.00;155420.06;4991218;28;20092;-76
2022/10/14 00:31:21;;;;;;;46.67;29.33;;;;;;;11.50;100.00;155413.66;4991504;28;20131;-77
2022/10/14 00:33:48;;;;;;;46.35;28.92;;;;;;;11.50;100.00;155413.66;5007756;28;20033;-76
2022/10/14 00:36:15;;;;;;;48.70;30.90;;;;;;;11.50;100.00;155414.94;4998142;28;20459;-75
2022/10/14 00:38:41;;;;;;;47.50;29.85;;;;;;;11.50;100.00;155414.94;4992777;28;20034;-76
2022/10/14 00:41:11;;;;;;;46.90;26.85;;;;;;;11.62;100.00;155443.16;5000948;28;20029;-76
2022/10/14 00:44:14;;;;;;;49.15;27.95;;;;;;;11.65;100.00;155452.16;5003822;28;20038;-77
2022/10/14 00:46:40;;;;;;;49.60;29.60;;;;;;;11.58;100.00;155432.91;4979155;28;20064;-76
2022/10/14 00:49:11;;;;;;;46.03;28.50;;;;;;;11.54;100.00;155423.91;4995375;28;20046;-77
2022/10/14 00:51:39;;;;;;;48.97;28.88;;;;;;;11.49;100.00;155412.38;5007919;28;20156;-75
2022/10/14 00:54:06;;;;;;;53.30;30.02;;;;;;;11.52;100.00;155417.53;5008361;28;20094;-76
2022/10/14 00:56:34;;;;;;;50.45;30.38;;;;;;;11.45;100.00;155402.13;5003279;28;20037;-76
2022/10/14 00:59:04;;;;;;;49.47;29.38;;;;;;;11.46;100.00;155404.66;4992291;28;20360;-77
2022/10/14 01:01:30;;;;;;;45.15;28.58;;;;;;;11.43;100.00;155395.69;5004481;28;20038;-77
2022/10/14 01:03:59;;;;;;;55.63;31.65;;;;;;;11.45;100.00;155402.13;4990668;28;20577;-76
2022/10/14 01:06:31;;;;;;;58.95;32.00;;;;;;;11.44;100.00;155398.25;4981757;28;20031;-77
2022/10/14 01:09:12;;;;;;;57.65;31.30;;;;;;;11.45;100.00;155400.81;4990841;28;20076;-76
2022/10/14 01:11:49;;;;;;;53.47;30.20;;;;;;;11.42;100.00;155394.41;5006371;28;20108;-76
2022/10/14 01:14:30;;;;;;;53.30;31.65;;;;;;;11.42;100.00;155393.13;4998152;28;20121;-76
2022/10/14 01:17:01;;;;;;;59.30;31.40;;;;;;;11.40;100.00;155388.00;4999480;28;20042;-76
2022/10/14 01:19:53;;;;;;;52.85;31.05;;;;;;;11.37;100.00;155380.28;4990046;28;20042;-77
2022/10/14 01:22:30;;;;;;;54.58;31.83;;;;;;;11.36;100.00;155379.00;4995208;28;20049;-75
2022/10/14 01:25:24;;;;;;;54.60;31.15;;;;;;;11.33;100.00;155371.31;4990363;28;20495;-78
2022/10/14 01:28:11;;;;;;;58.63;32.95;;;;;;;11.30;100.00;155363.56;4999037;28;20052;-75
2022/10/14 01:30:45;;;;;;;57.22;31.73;;;;;;;11.34;100.00;155372.56;4986612;28;20144;-76
2022/10/14 01:33:22;;;;;;;56.42;32.67;;;;;;;11.30;100.00;155364.91;5004193;28;20042;-76
2022/10/14 01:35:52;;;;;;;55.72;31.55;;;;;;;11.25;100.00;155350.78;4981339;28;20038;-76
2022/10/14 01:38:25;;;;;;;56.15;30.88;;;;;;;11.24;100.00;155349.47;4985872;28;20129;-75
2022/10/14 01:40:56;;;;;;;60.20;31.77;;;;;;;11.27;100.00;155355.91;5005412;28;20044;-77
2022/10/14 01:43:26;;;;;;;50.05;30.67;;;;;;;11.23;100.00;155346.91;5008201;28;20049;-77
2022/10/14 01:45:54;;;;;;;55.45;31.38;;;;;;;11.21;100.00;155340.53;4976708;28;20366;-76
2022/10/14 01:48:23;;;;;;;57.00;31.23;;;;;;;11.24;100.00;155349.47;4988615;28;20045;-77
2022/10/14 01:50:53;;;;;;;54.10;30.73;;;;;;;11.23;100.00;155346.91;4996574;28;20044;-75
2022/10/14 01:53:28;;;;;;;55.03;31.17;;;;;;;11.27;100.00;155355.91;4999225;28;20088;-78
2022/10/14 01:55:56;;;;;;;54.08;30.00;;;;;;;11.29;100.00;155361.03;5007115;28;20042;-75
2022/10/14 01:58:25;;;;;;;54.83;32.08;;;;;;;11.27;100.00;155357.19;5005782;28;20649;-76
2022/10/14 02:00:52;;;;;;;58.35;33.35;;;;;;;11.25;100.00;155350.78;5015854;28;20030;-75
2022/10/14 02:03:18;;;;;;;53.40;31.20;;;;;;;11.24;100.00;155348.19;5002972;28;20041;-76
2022/10/14 02:06:03;;;;;;;57.55;31.10;;;;;;;11.26;100.00;155353.31;5000271;28;20144;-77
2022/10/14 02:08:51;;;;;;;55.25;30.90;;;;;;;11.24;100.00;155349.47;4996086;28;20033;-76
2022/10/14 02:11:19;;;;;;;53.00;31.38;;;;;;;11.18;100.00;155334.06;5006352;28;20045;-75
2022/10/14 02:13:48;;;;;;;53.28;30.15;;;;;;;11.11;100.00;155316.09;4984168;28;20495;-75
2022/10/14 02:16:35;;;;;;;52.10;29.45;;;;;;;11.03;100.00;155295.56;4992128;28;20045;-77
2022/10/14 02:19:22;;;;;;;53.45;30.60;;;;;;;10.93;100.00;155271.22;4992751;28;20402;-77
2022/10/14 02:22:20;;;;;;;55.00;31.63;;;;;;;10.87;100.00;155257.09;4991152;28;20048;-78
2022/10/14 02:25:21;;;;;;;53.42;29.30;;;;;;;10.82;100.00;155244.25;4977962;28;20137;-76
2022/10/14 02:27:48;;;;;;;49.00;27.98;;;;;;;10.82;100.00;155244.25;5002040;28;20045;-76
2022/10/14 02:30:16;;;;;;;51.65;28.55;;;;;;;10.79;100.00;155236.53;5007070;28;20442;-77
2022/10/14 02:32:44;;;;;;;60.03;32.70;;;;;;;10.85;100.00;155251.97;5020246;28;20654;-75
2022/10/14 02:35:15;;;;;;;57.50;28.83;;;;;;;10.86;100.00;155254.50;4988841;28;20387;-77
2022/10/14 02:37:44;;;;;;;66.60;33.05;;;;;;;10.91;100.00;155266.06;4992458;28;20041;-75
2022/10/14 02:40:18;;;;;;;54.63;31.67;;;;;;;11.00;100.00;155289.19;5008654;28;20503;-77
2022/10/14 02:42:43;;;;;;;59.60;34.03;;;;;;;10.98;100.00;155282.72;4976796;28;20038;-76
2022/10/14 02:45:10;;;;;;;62.72;34.72;;;;;;;11.07;100.00;155305.84;5024461;28;20045;-76
2022/10/14 02:47:37;;;;;;;70.85;35.40;;;;;;;11.07;100.00;155307.09;5005216;28;20041;-77
2022/10/14 02:50:03;;;;;;;71.38;35.90;;;;;;;11.10;100.00;155313.56;5008004;28;20099;-77
2022/10/14 02:52:29;;;;;;;66.10;36.47;;;;;;;11.12;100.00;155317.41;4976608;28;20033;-75
2022/10/14 02:54:54;;;;;;;81.07;40.28;;;;;;;11.10;100.00;155314.81;5010028;28;20034;-76
2022/10/14 02:57:21;;;;;;;77.28;39.30;;;;;;;11.12;100.00;155318.69;5000354;28;20625;-77
2022/10/14 02:59:47;;;;;;;72.72;33.38;;;;;;;11.10;100.00;155313.56;5021043;28;20033;-75
2022/10/14 03:02:13;;;;;;;70.90;32.78;;;;;;;11.04;100.00;155298.16;4990162;28;20041;-76
2022/10/14 03:04:40;;;;;;;68.32;34.65;;;;;;;11.04;100.00;155298.16;5012490;28;20038;-76
2022/10/14 03:07:07;;;;;;;61.25;31.13;;;;;;;11.01;100.00;155291.72;4995754;28;20045;-78
2022/10/14 03:09:38;;;;;;;75.15;36.05;;;;;;;11.03;100.00;155296.84;4995247;28;20120;-77
2022/10/14 03:12:05;;;;;;;64.90;32.50;;;;;;;11.02;100.00;155294.31;5020479;28;20490;-76
2022/10/14 03:14:31;;;;;;;71.18;34.47;;;;;;;10.99;100.00;155286.59;4994651;28;20034;-76
2022/10/14 03:16:56;;;;;;;75.22;36.53;;;;;;;11.04;100.00;155298.16;4997705;28;20920;-77
2022/10/14 03:19:24;;;;;;;81.47;38.78;;;;;;;11.04;100.00;155299.44;4991895;28;20488;-77
2022/10/14 03:21:52;;;;;;;89.53;39.70;;;;;;;11.06;100.00;155304.56;5004375;28;20110;-77
2022/10/14 03:24:19;;;;;;;73.72;35.75;;;;;;;11.07;100.00;155305.84;4995011;28;20428;-77
2022/10/14 03:26:51;;;;;;;62.40;31.50;;;;;;;11.02;100.00;155294.31;4994210;28;20471;-77
2022/10/14 03:29:22;;;;;;;57.80;30.35;;;;;;;10.99;100.00;155285.31;5000874;28;20685;-76
2022/10/14 03:31:56;;;;;;;73.07;33.47;;;;;;;10.97;100.00;155281.47;5000656;28;20065;-76
2022/10/14 03:34:45;;;;;;;75.32;35.45;;;;;;;10.94;100.00;155273.75;4994546;28;20050;-77
2022/10/14 03:37:15;;;;;;;66.50;32.90;;;;;;;10.93;100.00;155271.22;4995365;28;20034;-77
2022/10/14 03:39:47;;;;;;;72.30;33.35;;;;;;;10.88;100.00;155259.63;4999100;28;20570;-76
2022/10/14 03:42:14;;;;;;;72.90;35.50;;;;;;;10.92;100.00;155268.63;4985560;28;20124;-76
2022/10/14 03:44:45;;;;;;;78.57;36.53;;;;;;;10.93;100.00;155271.22;4995772;28;20757;-77
2022/10/14 03:47:24;;;;;;;77.75;38.10;;;;;;;10.98;100.00;155282.72;5008565;28;20073;-75
2022/10/14 03:49:50;;;;;;;82.40;38.55;;;;;;;10.96;100.00;155277.59;4998607;28;20069;-75
2022/10/14 03:52:24;;;;;;;79.22;36.20;;;;;;;10.97;100.00;155280.19;4989576;28;20037;-76
2022/10/14 03:55:05;;;;;;;80.00;37.78;;;;;;;11.04;100.00;155299.44;4980009;28;20034;-75
2022/10/14 03:57:31;;;;;;;79.40;37.67;;;;;;;11.04;100.00;155298.16;4992680;28;20088;-75
2022/10/14 03:59:58;;;;;;;79.88;36.72;;;;;;;11.02;100.00;155293.00;5008633;28;20120;-76
2022/10/14 04:02:39;;;;;;;79.82;37.63;;;;;;;11.06;100.00;155303.28;5018085;28;20050;-76
2022/10/14 04:05:08;;;;;;;84.50;38.47;;;;;;;11.05;100.00;155301.97;4971455;28;20527;-76
2022/10/14 04:07:34;;;;;;;76.55;35.40;;;;;;;11.07;100.00;155305.84;5025071;28;20606;-77
2022/10/14 04:10:00;;;;;;;88.40;38.58;;;;;;;11.02;100.00;155293.00;4992229;28;20041;-77
2022/10/14 04:12:26;;;;;;;91.95;38.85;;;;;;;11.05;100.00;155301.97;4992711;28;20033;-77
2022/10/14 04:14:59;;;;;;;83.70;37.13;;;;;;;11.08;100.00;155308.44;4987038;28;20798;-76
2022/10/14 04:17:29;;;;;;;82.45;38.22;;;;;;;11.08;100.00;155308.44;5007436;28;20153;-77
2022/10/14 04:19:57;;;;;;;77.22;37.08;;;;;;;11.09;100.00;155310.97;4988188;28;20077;-76
2022/10/14 04:22:23;;;;;;;72.43;35.67;;;;;;;11.06;100.00;155303.28;4992757;28;20080;-76
2022/10/14 04:24:52;;;;;;;80.32;36.70;;;;;;;11.09;100.00;155310.97;4992948;28;20048;-76
2022/10/14 04:27:19;;;;;;;79.40;35.55;;;;;;;11.11;100.00;155316.09;4998337;28;20088;-76
2022/10/14 04:29:56;;;;;;;82.45;37.90;;;;;;;11.12;100.00;155318.69;4995962;28;20501;-77
2022/10/14 04:32:27;;;;;;;96.50;39.90;;;;;;;11.15;100.00;155325.09;5008195;28;20137;-76
2022/10/14 04:34:53;;;;;;;88.55;38.47;;;;;;;11.17;100.00;155331.53;4994119;28;20121;-76
2022/10/14 04:37:21;;;;;;;89.97;38.65;;;;;;;11.14;100.00;155323.81;4991844;28;20573;-79
2022/10/14 04:39:54;;;;;;;96.03;40.15;;;;;;;11.15;100.00;155326.41;4982207;28;20475;-77
2022/10/14 04:42:20;;;;;;;105.07;41.47;;;;;;;11.17;100.00;155330.22;5007780;28;20101;-76
2022/10/14 04:44:49;;;;;;;103.38;40.45;;;;;;;11.18;100.00;155332.81;5000004;28;20041;-76
2022/10/14 04:47:17;;;;;;;90.45;38.75;;;;;;;11.17;100.00;155331.53;5007932;28;20063;-75
2022/10/14 04:49:45;;;;;;;99.93;40.05;;;;;;;11.20;100.00;155339.19;4993535;28;20391;-75
2022/10/14 04:52:17;;;;;;;102.88;40.13;;;;;;;11.20;100.00;155339.19;4991248;28;20034;-76
2022/10/14 04:54:57;;;;;;;108.55;41.58;;;;;;;11.19;100.00;155335.34;5013032;28;20045;-74
2022/10/14 04:57:33;;;;;;;99.93;39.38;;;;;;;11.20;100.00;155339.19;4991704;28;20144;-75
2022/10/14 05:00:00;;;;;;;95.43;38.70;;;;;;;11.23;100.00;155345.66;4990122;28;20064;-76
2022/10/14 05:02:52;;;;;;;110.65;39.50;;;;;;;11.24;100.00;155348.19;5001391;28;20506;-75
2022/10/14 05:05:18;;;;;;;101.30;39.63;;;;;;;11.24;100.00;155349.47;4988163;28;20033;-76
2022/10/14 05:07:48;;;;;;;91.93;38.35;;;;;;;11.29;100.00;155361.03;5003108;28;20058;-75
2022/10/14 05:10:32;;;;;;;92.60;38.83;;;;;;;11.27;100.00;155355.91;5005795;28;20080;-76
2022/10/14 05:13:00;;;;;;;97.93;40.33;;;;;;;11.27;100.00;155357.19;5007630;28;20103;-75
2022/10/14 05:15:30;;;;;;;98.53;39.97;;;;;;;11.28;100.00;155359.78;4973737;28;20046;-75
2022/10/14 05:18:04;;;;;;;101.60;39.15;;;;;;;11.28;100.00;155358.44;4977908;28;20042;-75
2022/10/14 05:20:46;;;;;;;93.30;37.63;;;;;;;11.26;100.00;155353.31;5006470;28;20116;-76
2022/10/14 05:23:12;;;;;;;91.28;38.60;;;;;;;11.25;100.00;155352.06;4991432;28;20045;-77
2022/10/14 05:25:38;;;;;;;98.60;39.30;;;;;;;11.27;100.00;155357.19;4993168;28;20040;-75
2022/10/14 05:28:04;;;;;;;99.85;39.88;;;;;;;11.26;100.00;155353.31;5014532;28;20037;-76
2022/10/14 05:30:30;;;;;;;100.78;38.85;;;;;;;11.21;100.00;155340.53;4992330;28;20030;-78
2022/10/14 05:32:59;;;;;;;93.10;39.45;;;;;;;11.23;100.00;155346.91;4992960;28;20045;-75
2022/10/14 05:35:25;;;;;;;93.68;39.63;;;;;;;11.23;100.00;155345.66;5006451;28;20094;-75
2022/10/14 05:37:56;;;;;;;101.30;41.30;;;;;;;11.21;100.00;155340.53;4985350;28;20030;-76
2022/10/14 05:40:22;;;;;;;101.63;40.15;;;;;;;11.19;100.00;155336.66;4990110;28;20038;-76
2022/10/14 05:42:51;;;;;;;102.43;40.53;;;;;;;11.21;100.00;155341.78;4991217;28;20043;-77
2022/10/14 05:45:18;;;;;;;100.85;39.97;;;;;;;11.22;100.00;155344.34;5001088;28;20125;-75
2022/10/14 05:47:49;;;;;;;104.18;41.85;;;;;;;11.21;100.00;155341.78;4990428;28;20064;-76
2022/10/14 05:50:17;;;;;;;98.07;41.08;;;;;;;11.28;100.00;155359.78;5022940;28;20049;-76
2022/10/14 05:52:45;;;;;;;93.50;41.55;;;;;;;11.23;100.00;155345.66;4992598;28;20053;-76
2022/10/14 05:55:30;;;;;;;107.45;43.42;;;;;;;11.24;100.00;155349.47;5006784;28;20046;-76
2022/10/14 05:57:59;;;;;;;115.63;45.25;;;;;;;11.23;100.00;155346.91;4974239;28;20038;-76
2022/10/14 06:00:31;;;;;;;100.25;43.47;;;;;;;11.24;100.00;155348.19;4992302;28;20375;-76
2022/10/14 06:03:03;;;;;;;104.75;43.20;;;;;;;11.24;100.00;155348.19;4991834;28;20052;-76
2022/10/14 06:05:29;;;;;;;113.13;45.63;;;;;;;11.23;100.00;155346.91;4989445;28;20990;-76
2022/10/14 06:07:54;;;;;;;111.38;44.85;;;;;;;11.28;100.00;155358.44;4991937;28;20125;-75
2022/10/14 06:10:20;;;;;;;113.95;45.67;;;;;;;11.33;100.00;155370.03;5015757;28;20038;-76
2022/10/14 06:12:46;;;;;;;117.65;45.10;;;;;;;11.33;100.00;155370.03;5026209;28;20062;-75
2022/10/14 06:15:12;;;;;;;126.00;48.45;;;;;;;11.31;100.00;155366.16;4975776;28;20127;-77
2022/10/14 06:17:38;;;;;;;116.18;46.60;;;;;;;11.29;100.00;155361.03;4987530;28;20037;-76
2022/10/14 06:20:04;;;;;;;122.15;47.20;;;;;;;11.34;100.00;155372.56;4991721;28;20030;-78
2022/10/14 06:22:32;;;;;;;107.10;46.67;;;;;;;11.35;100.00;155375.16;5009270;28;20037;-76
2022/10/14 06:24:58;;;;;;;100.88;44.20;;;;;;;11.36;100.00;155379.00;5008896;28;20041;-76
2022/10/14 06:27:23;;;;;;;99.15;44.58;;;;;;;11.39;100.00;155385.41;4989731;28;20445;-76
2022/10/14 06:29:49;;;;;;;96.63;45.20;;;;;;;11.40;100.00;155388.00;5019192;28;20043;-75
2022/10/14 06:32:14;;;;;;;92.28;44.22;;;;;;;11.43;100.00;155397.00;4993981;28;20364;-76
2022/10/14 06:34:40;;;;;;;96.97;43.92;;;;;;;11.45;100.00;155400.81;4996018;28;20112;-76
2022/10/14 06:37:06;;;;;;;92.05;44.03;;;;;;;11.48;100.00;155408.53;4990664;28;20038;-76
2022/10/14 06:39:31;;;;;;;97.57;44.40;;;;;;;11.52;100.00;155418.78;5012275;28;20029;-75
2022/10/14 06:41:57;;;;;;;96.38;45.05;;;;;;;11.59;100.00;155435.50;4997090;28;20041;-76
2022/10/14 06:44:23;;;;;;;94.00;45.25;;;;;;;11.58;100.00;155434.19;5025368;28;20038;-77
2022/10/14 06:46:49;;;;;;;87.30;43.70;;;;;;;11.74;100.00;155472.72;5024081;28;20029;-76
2022/10/14 06:49:17;;;;;;;79.93;42.63;;;;;;;11.65;100.00;155450.91;5009233;28;20116;-75
2022/10/14 06:51:42;;;;;;;87.47;42.80;;;;;;;11.69;100.00;155461.16;4995572;28;20084;-76
2022/10/14 06:54:08;;;;;;;88.85;46.00;;;;;;;11.72;100.00;155467.59;4999236;28;20042;-76
2022/10/14 06:56:34;;;;;;;86.60;43.85;;;;;;;11.75;100.00;155476.53;5010088;28;20038;-76
2022/10/14 06:59:00;;;;;;;88.97;44.13;;;;;;;11.76;100.00;155477.88;5011618;28;20044;-75
2022/10/14 07:01:26;;;;;;;88.05;45.70;;;;;;;11.76;100.00;155479.13;4998285;28;20041;-76
2022/10/14 07:03:51;;;;;;;89.63;46.05;;;;;;;11.70;100.00;155463.75;4995677;28;20384;-75
2022/10/14 07:06:17;;;;;;;87.70;44.95;;;;;;;11.71;100.00;155465.00;4994180;28;20037;-76
2022/10/14 07:08:42;;;;;;;87.53;45.25;;;;;;;11.68;100.00;155459.88;4999052;28;20084;-76
2022/10/14 07:11:08;;;;;;;93.68;46.42;;;;;;;11.68;100.00;155458.63;4995037;28;20045;-76
2022/10/14 07:13:34;;;;;;;88.57;45.08;;;;;;;11.67;100.00;155457.28;5010758;28;20044;-75
2022/10/14 07:15:59;;;;;;;88.50;48.05;;;;;;;11.61;100.00;155441.91;4995891;28;20045;-75
2022/10/14 07:18:25;;;;;;;90.07;47.25;;;;;;;11.66;100.00;155453.47;4997174;28;20042;-75
2022/10/14 07:20:51;;;;;;;88.78;45.85;;;;;;;11.66;100.00;155453.47;5010315;28;20041;-76
2022/10/14 07:23:17;;;;;;;90.20;48.33;;;;;;;11.69;100.00;155461.16;4992501;28;20049;-76
2022/10/14 07:25:45;;;;;;;86.78;46.70;;;;;;;11.71;100.00;155465.00;5012083;28;20030;-77
2022/10/14 07:28:11;;;;;;;87.45;47.17;;;;;;;11.71;100.00;155465.00;5012808;28;20040;-76
2022/10/14 07:30:37;;;;;;;86.95;46.75;;;;;;;11.76;100.00;155479.13;5014201;28;20068;-77
2022/10/14 07:33:04;;;;;;;89.15;48.33;;;;;;;11.86;100.00;155503.53;5016543;28;20163;-77
2022/10/14 07:35:30;;;;;;;81.97;46.50;;;;;;;11.88;100.00;155509.97;4999394;28;20483;-76
2022/10/14 07:37:58;;;;;;;78.72;45.85;;;;;;;12.01;100.00;155540.81;4995909;28;20053;-75
2022/10/14 07:40:24;;;;;;;79.68;46.28;;;;;;;12.02;100.00;155543.41;5003910;28;20667;-76
2022/10/14 07:42:49;;;;;;;78.13;47.15;;;;;;;12.03;100.00;155547.22;5009344;28;20030;-76
2022/10/14 07:45:17;;;;;;;82.40;44.67;;;;;;;12.03;100.00;155547.22;5008944;28;20030;-76
2022/10/14 07:47:46;;;;;;;81.68;45.40;;;;;;;12.16;100.00;155578.06;4975647;28;20042;-76
2022/10/14 07:50:11;;;;;;;70.22;43.78;;;;;;;12.23;100.00;155597.31;5022899;28;20419;-77
2022/10/14 07:52:37;;;;;;;73.53;44.50;;;;;;;12.38;100.00;155634.56;4969802;28;20034;-75
2022/10/14 07:55:04;;;;;;;72.85;42.60;;;;;;;12.47;100.00;155656.44;4998116;28;20058;-77
2022/10/14 07:57:30;;;;;;;72.38;41.72;;;;;;;12.55;100.00;155676.97;4990943;28;20648;-76
2022/10/14 07:59:56;;;;;;;68.90;41.42;;;;;;;12.53;100.00;155670.56;4979243;28;20141;-75
2022/10/14 08:02:22;;;;;;;68.80;41.38;;;;;;;12.52;100.00;155669.25;4998038;28;20081;-75
2022/10/14 08:04:54;;;;;;;76.22;42.65;;;;;;;12.50;100.00;155664.09;4993205;28;20029;-76
2022/10/14 08:07:21;;;;;;;70.63;41.30;;;;;;;12.59;100.00;155687.22;4990888;28;20045;-76
2022/10/14 08:09:47;;;;;;;62.50;40.20;;;;;;;12.52;100.00;155667.97;4993766;28;20101;-75
2022/10/14 08:12:12;;;;;;;63.30;39.70;;;;;;;12.44;100.00;155648.69;5008036;28;20545;-77
2022/10/14 08:14:38;;;;;;;63.30;39.15;;;;;;;12.31;100.00;155616.56;5013635;28;20030;-76
2022/10/14 08:17:04;;;;;;;62.58;37.53;;;;;;;12.29;100.00;155610.19;4994940;28;20506;-76
2022/10/14 08:19:29;;;;;;;57.80;35.38;;;;;;;12.28;100.00;155608.84;5021281;28;20045;-76
2022/10/14 08:21:55;;;;;;;55.60;35.58;;;;;;;12.33;100.00;155620.44;4991205;28;20045;-76
2022/10/14 08:24:21;;;;;;;51.60;33.20;;;;;;;12.35;100.00;155626.84;4996664;28;20038;-77
2022/10/14 08:26:55;;;;;;;54.40;34.33;;;;;;;12.49;100.00;155661.56;5001109;28;20034;-76
2022/10/14 08:29:21;;;;;;;53.33;34.42;;;;;;;12.51;100.00;155665.38;5006815;28;20109;-75
2022/10/14 08:31:48;;;;;;;44.70;31.85;;;;;;;12.56;100.00;155678.22;4990122;28;20041;-75
2022/10/14 08:34:14;;;;;;;44.15;31.80;;;;;;;12.59;100.00;155685.97;4991237;28;20129;-75
2022/10/14 08:36:39;;;;;;;48.10;31.88;;;;;;;12.62;100.00;155694.94;5002859;28;20112;-77
2022/10/14 08:39:06;;;;;;;45.72;32.13;;;;;;;12.71;100.00;155716.75;5004056;28;20038;-74
2022/10/14 08:41:45;;;;;;;51.20;33.08;;;;;;;12.82;100.00;155743.75;5002744;28;20037;-76
2022/10/14 08:44:21;;;;;;;45.00;31.40;;;;;;;12.92;100.00;155769.47;4995342;28;20456;-75
2022/10/14 08:46:54;;;;;;;49.67;32.20;;;;;;;12.92;100.00;155768.16;4974896;28;20057;-76
2022/10/14 08:49:26;;;;;;;46.53;30.95;;;;;;;13.08;100.00;155808.00;4978863;28;20088;-76
2022/10/14 08:51:58;;;;;;;50.05;31.58;;;;;;;13.18;100.00;155833.69;4995897;28;20042;-75
2022/10/14 08:54:39;;;;;;;41.65;29.67;;;;;;;13.18;100.00;155834.97;5005365;28;20581;-75
2022/10/14 08:57:13;;;;;;;44.50;30.65;;;;;;;13.24;100.00;155850.41;5006103;28;20380;-76
2022/10/14 08:59:40;;;;;;;42.83;30.00;;;;;;;13.20;100.00;155838.81;4990130;28;20037;-75
2022/10/14 09:02:28;;;;;;;41.40;29.33;;;;;;;13.34;100.00;155874.88;5000262;28;20033;-76
2022/10/14 09:04:55;;;;;;;39.22;28.42;;;;;;;13.41;100.00;155891.56;4985536;28;20079;-76
2022/10/14 09:07:21;;;;;;;40.75;28.67;;;;;;;13.40;100.00;155889.00;5006825;28;20026;-76
2022/10/14 09:09:52;;;;;;;36.35;26.80;;;;;;;13.47;100.00;155905.69;4991037;28;20496;-76
2022/10/14 09:12:25;;;;;;;39.17;28.00;;;;;;;13.60;100.00;155940.44;4984599;28;20065;-74
2022/10/14 09:15:14;;;;;;;38.22;28.38;;;;;;;13.75;100.00;155976.38;4991139;28;20033;-76
2022/10/14 09:17:52;;;;;;;38.58;27.20;;;;;;;13.78;100.00;155985.41;4984590;28;20037;-76
2022/10/14 09:20:24;;;;;;;36.67;26.58;;;;;;;13.82;100.00;155995.72;4989902;28;20057;-76
2022/10/14 09:23:09;;;;;;;34.50;26.73;;;;;;;13.87;100.00;156007.25;4977192;28;20038;-76
2022/10/14 09:25:40;;;;;;;37.30;26.92;;;;;;;13.84;100.00;155999.53;5008977;28;20045;-76
2022/10/14 09:28:07;;;;;;;36.90;26.55;;;;;;;14.02;100.00;156044.56;5006021;28;20034;-76
2022/10/14 09:30:36;;;;;;;35.00;25.60;;;;;;;14.12;100.00;156070.25;4984395;28;20084;-76
2022/10/14 09:33:03;;;;;;;35.50;25.30;;;;;;;14.20;100.00;156089.53;4989492;28;20042;-76
2022/10/14 09:35:35;;;;;;;37.28;26.63;;;;;;;14.20;100.00;156090.84;5005925;28;20138;-76
2022/10/14 09:38:00;;;;;;;32.63;26.20;;;;;;;14.10;100.00;156063.84;5005913;28;20442;-77
2022/10/14 09:40:44;;;;;;;36.08;26.50;;;;;;;14.12;100.00;156068.97;5021690;28;20034;-76
2022/10/14 09:43:09;;;;;;;37.10;27.17;;;;;;;14.20;100.00;156090.84;4974748;28;20095;-77
2022/10/14 09:45:57;;;;;;;37.00;27.45;;;;;;;14.37;100.00;156131.97;5007167;28;20045;-75
2022/10/14 09:48:31;;;;;;;37.08;25.70;;;;;;;14.48;100.00;156158.97;4988963;28;20096;-76
2022/10/14 09:50:59;;;;;;;35.10;24.88;;;;;;;14.69;100.00;156211.75;4992329;28;20057;-76
2022/10/14 09:53:32;;;;;;;35.50;24.15;;;;;;;14.79;100.00;156237.50;5001854;28;20029;-76
2022/10/14 09:56:01;;;;;;;34.08;23.75;;;;;;;14.79;100.00;156238.78;4978168;28;20042;-76
2022/10/14 09:58:46;;;;;;;34.95;25.27;;;;;;;14.58;100.00;156186.06;5003377;28;20092;-75
2022/10/14 10:01:21;;;;;;;36.40;26.52;;;;;;;14.47;100.00;156156.44;5006467;28;20435;-76
2022/10/14 10:03:48;;;;;;;31.00;23.55;;;;;;;14.40;100.00;156140.97;5003946;28;20037;-77
2022/10/14 10:06:20;;;;;;;34.95;24.95;;;;;;;14.50;100.00;156165.41;5003021;28;20045;-74
2022/10/14 10:08:51;;;;;;;33.75;25.02;;;;;;;14.52;100.00;156170.59;5008971;28;20045;-75
2022/10/14 10:11:32;;;;;;;31.30;23.95;;;;;;;14.49;100.00;156162.84;4995615;28;20049;-76
2022/10/14 10:13:58;;;;;;;31.27;23.25;;;;;;;14.39;100.00;156138.41;4997833;28;20068;-76
2022/10/14 10:16:36;;;;;;;30.60;23.85;;;;;;;14.37;100.00;156133.28;5000282;28;20038;-75
2022/10/14 10:19:37;;;;;;;33.75;23.83;;;;;;;14.45;100.00;156152.56;5000854;28;20042;-76
2022/10/14 10:22:18;;;;;;;34.33;23.98;;;;;;;14.54;100.00;156175.72;4986125;28;20057;-75
2022/10/14 10:24:45;;;;;;;31.67;24.23;;;;;;;14.62;100.00;156193.75;4992417;28;20442;-76
2022/10/14 10:27:24;;;;;;;30.77;22.75;;;;;;;14.56;100.00;156180.88;4991575;28;20040;-76
2022/10/14 10:29:55;;;;;;;30.90;23.33;;;;;;;14.45;100.00;156151.25;5009477;28;20515;-76
2022/10/14 10:32:31;;;;;;;30.92;23.13;;;;;;;14.43;100.00;156147.44;5025741;28;20038;-76
2022/10/14 10:35:03;;;;;;;29.88;23.02;;;;;;;14.48;100.00;156158.97;5005559;28;20511;-76
2022/10/14 10:37:36;;;;;;;31.95;24.15;;;;;;;14.52;100.00;156170.59;4991438;28;20553;-77
2022/10/14 10:40:31;;;;;;;29.05;22.02;;;;;;;14.44;100.00;156149.97;4975045;28;20410;-76
2022/10/14 10:43:37;;;;;;;28.52;22.67;;;;;;;14.44;100.00;156148.69;4994205;28;20065;-76
2022/10/14 10:46:11;;;;;;;29.60;22.23;;;;;;;14.32;100.00;156119.13;5007541;28;20128;-78
2022/10/14 10:48:53;;;;;;;31.27;23.08;;;;;;;14.18;100.00;156085.72;5009128;28;20033;-75
2022/10/14 10:51:38;;;;;;;33.35;21.52;;;;;;;14.24;100.00;156098.53;5017272;28;20045;-75
2022/10/14 10:54:19;;;;;;;33.75;22.70;;;;;;;14.38;100.00;156134.56;4996510;28;20564;-76
2022/10/14 10:56:56;;;;;;;29.67;21.70;;;;;;;14.74;100.00;156224.63;5009503;28;20451;-77
2022/10/14 10:59:42;;;;;;;27.25;20.67;;;;;;;14.95;100.00;156278.63;5025687;28;20116;-75
2022/10/14 11:02:33;;;;;;;27.65;20.02;;;;;;;15.01;100.00;156292.78;4988545;28;20474;-75
2022/10/14 11:05:01;;;;;;;26.58;20.38;;;;;;;15.01;100.00;156292.78;5011304;28;20061;-76
2022/10/14 11:12:01;;;;;;;24.08;18.98;;;;;;;14.78;100.00;156234.91;5002043;28;20045;-75
2022/10/14 11:14:30;;;;;;;26.30;19.73;;;;;;;14.55;100.00;156178.28;5010417;28;20072;-75
2022/10/14 11:17:05;;;;;;;28.73;20.67;;;;;;;14.56;100.00;156180.88;4987169;28;20062;-75
2022/10/14 11:19:58;;;;;;;28.92;20.70;;;;;;;14.48;100.00;156160.25;5009527;28;20037;-75
2022/10/14 11:22:52;;;;;;;26.50;21.08;;;;;;;14.39;100.00;156137.09;4976926;28;20097;-75
2022/10/14 11:25:39;;;;;;;27.50;20.00;;;;;;;14.32;100.00;156120.41;5006425;28;20757;-76